createdAt,value
2022-08-03T00:01:36.596Z,2.70
2022-08-03T00:04:39.006Z,4.47
2022-08-03T00:07:41.215Z,3.62
2022-08-03T00:10:43.670Z,3.17
2022-08-03T00:13:45.788Z,4.05
2022-08-03T00:16:48.190Z,2.60
2022-08-03T00:19:50.309Z,3.00
2022-08-03T00:22:52.798Z,2.72
2022-08-03T00:25:54.927Z,2.45
2022-08-03T00:28:57.351Z,3.12
2022-08-03T00:32:00.583Z,3.03
2022-08-03T00:35:08.355Z,2.65
2022-08-03T00:38:11.983Z,2.72
2022-08-03T00:41:15.743Z,3.12
2022-08-03T00:44:17.967Z,3.40
2022-08-03T00:47:20.343Z,2.78
2022-08-03T00:50:24.274Z,2.92
2022-08-03T00:53:27.703Z,2.87
2022-08-03T00:56:29.863Z,2.53
2022-08-03T00:59:32.610Z,3.30
2022-08-03T01:02:34.821Z,3.62
2022-08-03T01:05:52.243Z,3.17
2022-08-03T01:09:19.403Z,3.10
2022-08-03T01:12:42.327Z,3.72
2022-08-03T01:15:49.408Z,3.60
2022-08-03T01:19:00.159Z,5.90
2022-08-03T01:25:36.455Z,3.28
2022-08-03T01:28:57.478Z,6.10
2022-08-03T01:32:58.715Z,4.55
2022-08-03T01:35:45.154Z,3.35
2022-08-03T01:38:53.744Z,2.83
2022-08-03T01:42:06.104Z,2.92
2022-08-03T01:45:12.710Z,4.18
2022-08-03T01:48:18.631Z,5.40
2022-08-03T01:51:22.338Z,4.35
2022-08-03T01:54:25.995Z,4.40
2022-08-03T01:57:29.686Z,3.47
2022-08-03T02:00:33.064Z,3.20
2022-08-03T02:03:58.064Z,4.65
2022-08-03T02:07:03.428Z,3.75
2022-08-03T02:10:07.450Z,3.97
2022-08-03T02:13:10.565Z,3.60
2022-08-03T02:16:14.328Z,6.10
2022-08-03T02:19:18.129Z,4.35
2022-08-03T02:22:22.531Z,3.45
2022-08-03T02:25:24.790Z,3.50
2022-08-03T02:28:33.098Z,3.83
2022-08-03T02:31:37.834Z,3.28
2022-08-03T02:34:45.129Z,5.22
2022-08-03T02:37:52.221Z,3.70
2022-08-03T02:40:57.404Z,3.45
2022-08-03T02:44:07.111Z,4.22
2022-08-03T02:47:12.427Z,5.25
2022-08-03T02:50:16.770Z,3.85
2022-08-03T02:53:21.322Z,4.55
2022-08-03T02:56:27.354Z,4.78
2022-08-03T02:59:31.392Z,6.90
2022-08-03T03:02:34.940Z,4.28
2022-08-03T03:05:54.490Z,5.00
2022-08-03T03:09:00.383Z,4.53
2022-08-03T03:12:03.229Z,5.90
2022-08-03T03:15:06.620Z,3.75
2022-08-03T03:18:10.091Z,5.82
2022-08-03T03:21:14.307Z,5.03
2022-08-03T03:24:17.072Z,4.30
2022-08-03T03:27:19.412Z,4.10
2022-08-03T03:30:23.723Z,3.72
2022-08-03T03:33:28.408Z,4.43
2022-08-03T03:36:31.137Z,4.90
2022-08-03T03:39:33.513Z,4.07
2022-08-03T03:42:36.172Z,5.78
2022-08-03T03:45:40.582Z,3.72
2022-08-03T03:48:44.090Z,5.05
2022-08-03T03:51:46.238Z,5.35
2022-08-03T03:54:48.661Z,4.68
2022-08-03T03:57:50.983Z,4.70
2022-08-03T04:00:53.932Z,4.53
2022-08-03T04:03:56.573Z,7.05
2022-08-03T04:07:17.302Z,6.43
2022-08-03T04:10:41.648Z,7.70
2022-08-03T04:13:51.640Z,6.78
2022-08-03T04:17:01.804Z,5.43
2022-08-03T04:20:05.483Z,6.65
2022-08-03T04:23:13.721Z,4.60
2022-08-03T04:26:21.516Z,5.72
2022-08-03T04:29:26.036Z,5.18
2022-08-03T04:32:29.710Z,7.78
2022-08-03T04:35:59.782Z,8.15
2022-08-03T04:39:08.374Z,4.95
2022-08-03T04:42:13.968Z,6.10
2022-08-03T04:45:18.425Z,5.80
2022-08-03T04:48:21.224Z,6.57
2022-08-03T04:51:23.665Z,4.97
2022-08-03T04:54:26.079Z,5.37
2022-08-03T04:57:28.236Z,7.80
2022-08-03T05:00:30.656Z,6.40
2022-08-03T05:03:32.864Z,5.32
2022-08-03T05:06:35.439Z,6.45
2022-08-03T05:09:52.185Z,7.28
2022-08-03T05:12:55.353Z,6.60
2022-08-03T05:15:57.677Z,7.22
2022-08-03T05:19:00.064Z,7.18
2022-08-03T05:22:02.243Z,6.18
2022-08-03T05:25:05.127Z,8.55
2022-08-03T05:28:07.334Z,7.93
2022-08-03T05:31:09.779Z,5.43
2022-08-03T05:34:11.895Z,6.82
2022-08-03T05:37:14.330Z,5.50
2022-08-03T05:40:16.750Z,9.82
2022-08-03T05:43:19.234Z,14.38
2022-08-03T05:46:24.866Z,9.10
2022-08-03T05:49:27.424Z,8.15
2022-08-03T05:52:29.604Z,5.75
2022-08-03T05:55:32.298Z,6.37
2022-08-03T05:58:34.427Z,7.50
2022-08-03T06:01:37.036Z,11.32
2022-08-03T06:04:39.613Z,9.27
2022-08-03T06:07:41.865Z,7.05
2022-08-03T06:10:44.290Z,7.25
2022-08-03T06:13:46.484Z,8.07
2022-08-03T06:16:48.848Z,6.93
2022-08-03T06:19:53.546Z,10.63
2022-08-03T06:23:00.223Z,7.68
2022-08-03T06:26:03.430Z,8.85
2022-08-03T06:29:06.006Z,8.02
2022-08-03T06:32:12.075Z,6.82
2022-08-03T06:35:14.552Z,7.03
2022-08-03T06:38:16.774Z,7.12
2022-08-03T06:41:19.164Z,7.03
2022-08-03T06:44:21.310Z,11.80
2022-08-03T06:47:23.698Z,8.10
2022-08-03T06:50:26.291Z,8.10
2022-08-03T06:53:28.816Z,8.40
2022-08-03T06:56:30.975Z,7.78
2022-08-03T07:00:09.093Z,8.60
2022-08-03T07:02:58.318Z,7.75
2022-08-03T07:06:01.202Z,7.82
2022-08-03T07:09:03.509Z,8.23
2022-08-03T07:12:06.670Z,10.00
2022-08-03T07:15:09.177Z,12.23
2022-08-03T07:18:29.250Z,10.25
2022-08-03T07:21:32.261Z,7.72
2022-08-03T07:24:35.004Z,11.30
2022-08-03T07:27:38.242Z,8.00
2022-08-03T07:30:40.843Z,9.00
2022-08-03T07:33:42.964Z,9.63
2022-08-03T07:36:45.513Z,9.43
2022-08-03T07:39:47.828Z,10.13
2022-08-03T07:42:53.400Z,13.30
2022-08-03T07:45:55.780Z,9.50
2022-08-03T07:48:58.275Z,8.63
2022-08-03T07:52:19.339Z,7.40
2022-08-03T07:55:25.050Z,8.88
2022-08-03T07:58:27.160Z,8.68
2022-08-03T08:01:30.295Z,8.30
2022-08-03T08:04:32.879Z,10.35
2022-08-03T08:07:35.028Z,8.48
2022-08-03T08:10:37.621Z,8.48
2022-08-03T08:13:39.753Z,8.35
2022-08-03T08:16:42.524Z,7.57
2022-08-03T08:19:51.457Z,7.15
2022-08-03T08:22:56.912Z,6.85
2022-08-03T08:25:59.377Z,8.00
2022-08-03T08:29:01.734Z,6.90
2022-08-03T08:32:04.237Z,11.45
2022-08-03T08:35:09.821Z,9.32
2022-08-03T08:38:12.128Z,11.02
2022-08-03T08:41:15.651Z,6.75
2022-08-03T08:44:17.774Z,10.70
2022-08-03T08:47:26.039Z,8.05
2022-08-03T08:50:28.498Z,6.30
2022-08-03T08:53:33.206Z,6.62
2022-08-03T08:56:37.101Z,6.70
2022-08-03T08:59:49.051Z,9.00
2022-08-03T09:02:52.530Z,9.70
2022-08-03T09:05:56.419Z,6.72
2022-08-03T09:08:58.710Z,9.15
2022-08-03T09:12:20.872Z,9.23
2022-08-03T09:15:26.632Z,8.57
2022-08-03T09:18:32.591Z,14.32
2022-08-03T09:21:35.308Z,7.80
2022-08-03T09:24:41.558Z,9.60
2022-08-03T09:27:45.945Z,7.82
2022-08-03T09:30:59.755Z,5.87
2022-08-03T09:34:06.885Z,6.43
2022-08-03T09:37:15.991Z,7.68
2022-08-03T09:40:34.533Z,6.10
2022-08-03T09:43:47.061Z,6.30
2022-08-03T09:46:58.579Z,6.57
2022-08-03T09:50:04.163Z,6.72
2022-08-03T09:53:06.316Z,8.85
2022-08-03T09:56:34.285Z,7.28
2022-08-03T09:59:33.466Z,5.50
2022-08-03T10:02:36.979Z,7.85
2022-08-03T10:05:44.517Z,6.60
2022-08-03T10:08:47.173Z,6.07
2022-08-03T10:11:49.721Z,4.93
2022-08-03T10:14:52.629Z,5.25
2022-08-03T10:17:55.019Z,6.70
2022-08-03T10:21:06.295Z,5.57
2022-08-03T10:24:10.688Z,5.05
2022-08-03T10:27:14.866Z,7.97
2022-08-03T10:30:17.634Z,5.20
2022-08-03T10:33:50.277Z,5.07
2022-08-03T10:36:53.644Z,4.90
2022-08-03T10:39:57.997Z,5.22
2022-08-03T10:43:09.919Z,8.23
2022-08-03T10:46:14.215Z,6.30
2022-08-03T10:49:33.547Z,6.75
2022-08-03T10:52:56.707Z,5.37
2022-08-03T10:56:18.179Z,4.90
2022-08-03T10:59:46.493Z,8.15
2022-08-03T11:03:08.949Z,5.32
2022-08-03T11:06:21.791Z,5.45
2022-08-03T11:09:24.249Z,4.68
2022-08-03T11:12:32.734Z,4.40
2022-08-03T11:15:35.994Z,4.57
2022-08-03T11:18:56.214Z,3.97
2022-08-03T11:22:00.214Z,6.78
2022-08-03T11:25:02.598Z,4.90
2022-08-03T11:28:30.700Z,6.57
2022-08-03T11:31:51.884Z,4.85
2022-08-03T11:35:06.754Z,4.20
2022-08-03T11:38:10.558Z,7.47
2022-08-03T11:41:33.006Z,5.00
2022-08-03T11:44:47.486Z,6.65
2022-08-03T11:47:54.492Z,4.50
2022-08-03T11:50:56.898Z,4.03
2022-08-03T11:54:04.639Z,3.70
2022-08-03T11:57:06.926Z,4.62
2022-08-03T12:00:26.210Z,6.15
2022-08-03T12:03:33.034Z,3.35
2022-08-03T12:06:55.072Z,4.57
2022-08-03T12:10:14.295Z,3.62
2022-08-03T12:14:33.107Z,6.22
2022-08-03T12:16:40.043Z,5.07
2022-08-03T12:19:43.873Z,7.40
2022-08-03T12:22:46.303Z,4.50
2022-08-03T12:25:49.544Z,4.35
2022-08-03T12:28:52.247Z,3.50
2022-08-03T12:31:56.144Z,4.30
2022-08-03T12:35:01.252Z,3.72
2022-08-03T12:38:04.247Z,4.60
2022-08-03T12:41:13.525Z,4.30
2022-08-03T12:44:15.702Z,8.32
2022-08-03T12:47:18.258Z,4.07
2022-08-03T12:50:28.003Z,4.07
2022-08-03T12:53:30.428Z,4.60
2022-08-03T12:56:32.784Z,3.92
2022-08-03T12:59:40.710Z,3.58
2022-08-03T13:02:46.474Z,3.95
2022-08-03T13:05:49.128Z,4.25
2022-08-03T13:09:03.667Z,4.55
2022-08-03T13:12:10.513Z,4.62
2022-08-03T13:15:12.660Z,6.53
2022-08-03T13:18:17.329Z,4.32
2022-08-03T13:21:21.230Z,3.58
2022-08-03T13:24:23.868Z,3.22
2022-08-03T13:28:11.118Z,3.62
2022-08-03T13:30:49.726Z,3.80
2022-08-03T13:33:51.884Z,4.18
2022-08-03T13:37:10.444Z,4.18
2022-08-03T13:40:12.647Z,3.47
2022-08-03T13:43:17.182Z,4.30
2022-08-03T13:46:20.298Z,5.12
2022-08-03T13:49:22.927Z,5.70
2022-08-03T13:52:25.160Z,4.53
2022-08-03T13:55:27.662Z,4.95
2022-08-03T13:58:29.798Z,4.10
2022-08-03T14:01:54.185Z,4.37
2022-08-03T14:04:54.855Z,6.57
2022-08-03T14:07:58.293Z,7.82
2022-08-03T14:11:07.491Z,5.07
2022-08-03T14:14:09.690Z,4.07
2022-08-03T14:17:12.118Z,4.10
2022-08-03T14:20:37.359Z,4.18
2022-08-03T14:23:38.440Z,7.50
2022-08-03T14:26:40.551Z,4.18
2022-08-03T14:29:43.040Z,4.85
2022-08-03T14:32:47.288Z,5.43
2022-08-03T14:35:50.556Z,4.20
2022-08-03T14:38:52.740Z,4.20
2022-08-03T14:41:55.232Z,4.65
2022-08-03T14:45:02.430Z,7.25
2022-08-03T14:50:27.908Z,6.87
2022-08-03T14:51:29.883Z,5.45
2022-08-03T14:54:34.257Z,4.32
2022-08-03T14:57:36.445Z,3.95
2022-08-03T15:00:38.904Z,6.55
2022-08-03T15:03:41.158Z,4.60
2022-08-03T15:06:43.592Z,4.72
2022-08-03T15:09:50.698Z,4.32
2022-08-03T15:12:55.124Z,5.12
2022-08-03T15:15:57.890Z,4.30
2022-08-03T15:19:00.868Z,6.10
2022-08-03T15:22:03.157Z,3.37
2022-08-03T15:26:01.712Z,4.30
2022-08-03T15:28:28.344Z,3.80
2022-08-03T15:31:30.757Z,5.28
2022-08-03T15:34:33.059Z,3.97
2022-08-03T15:37:35.571Z,9.50
2022-08-03T15:40:37.998Z,4.05
2022-08-03T15:43:41.525Z,4.30
2022-08-03T15:46:53.075Z,3.92
2022-08-03T15:49:55.582Z,3.97
2022-08-03T15:52:57.732Z,4.78
2022-08-03T15:56:00.849Z,5.55
2022-08-03T15:59:12.303Z,4.05
2022-08-03T16:02:16.457Z,3.87
2022-08-03T16:05:18.844Z,5.50
2022-08-03T16:08:21.145Z,4.93
2022-08-03T16:11:23.626Z,4.07
2022-08-03T16:14:33.357Z,3.92
2022-08-03T16:17:41.106Z,3.80
2022-08-03T16:20:44.760Z,3.92
2022-08-03T16:23:48.155Z,5.25
2022-08-03T16:26:50.270Z,4.32
2022-08-03T16:29:52.826Z,4.78
2022-08-03T16:32:55.077Z,4.05
2022-08-03T16:35:57.462Z,5.35
2022-08-03T16:38:59.617Z,4.90
2022-08-03T16:42:02.313Z,5.12
2022-08-03T16:45:06.386Z,4.50
2022-08-03T16:48:08.815Z,3.80
2022-08-03T16:51:10.926Z,4.60
2022-08-03T16:54:14.065Z,3.60
2022-08-03T16:57:29.740Z,3.70
2022-08-03T17:00:41.236Z,6.78
2022-08-03T17:04:01.793Z,4.32
2022-08-03T17:07:06.946Z,4.18
2022-08-03T17:10:12.603Z,5.22
2022-08-03T17:13:21.755Z,4.12
2022-08-03T17:16:25.278Z,4.32
2022-08-03T17:19:30.730Z,5.60
2022-08-03T17:22:39.263Z,6.28
2022-08-03T17:26:01.994Z,3.87
2022-08-03T17:29:11.223Z,4.25
2022-08-03T17:32:21.169Z,5.22
2022-08-03T17:35:23.986Z,3.62
2022-08-03T17:38:31.846Z,4.25
2022-08-03T17:41:34.055Z,4.22
2022-08-03T17:44:46.030Z,5.75
2022-08-03T17:47:57.801Z,6.85
2022-08-03T17:51:06.646Z,6.65
2022-08-03T17:54:27.143Z,4.47
2022-08-03T17:58:02.310Z,7.03
2022-08-03T18:02:03.319Z,5.97
2022-08-03T18:08:32.265Z,7.53
2022-08-03T18:11:37.085Z,7.93
2022-08-03T18:14:57.331Z,4.78
2022-08-03T18:18:10.926Z,7.53
2022-08-03T18:21:17.054Z,5.43
2022-08-03T18:24:20.690Z,6.53
2022-08-03T18:27:42.660Z,5.60
2022-08-03T18:30:54.776Z,4.15
2022-08-03T18:37:25.104Z,4.32
2022-08-03T18:40:28.451Z,8.25
2022-08-03T18:43:46.744Z,5.43
2022-08-03T18:47:22.012Z,3.97
2022-08-03T18:50:39.147Z,7.32
2022-08-03T18:57:07.372Z,5.65
2022-08-03T19:00:24.268Z,7.35
2022-08-03T19:03:41.274Z,5.75
2022-08-03T19:06:49.028Z,5.15
2022-08-03T19:09:58.285Z,5.78
2022-08-03T19:13:14.108Z,5.30
2022-08-03T19:16:38.730Z,4.72
2022-08-03T19:19:44.883Z,7.22
2022-08-03T19:22:48.249Z,6.05
2022-08-03T19:25:51.191Z,4.87
2022-08-03T19:28:57.051Z,8.13
2022-08-03T19:32:02.000Z,5.05
2022-08-03T19:35:09.431Z,5.07
2022-08-03T19:38:17.411Z,5.12
2022-08-03T19:41:41.947Z,6.22
2022-08-03T19:44:50.464Z,6.12
2022-08-03T19:48:08.026Z,8.27
2022-08-03T19:51:12.696Z,7.30
2022-08-03T19:54:16.079Z,7.45
2022-08-03T19:57:19.850Z,5.25
2022-08-03T20:00:26.537Z,5.55
2022-08-03T20:03:43.010Z,5.65
2022-08-03T20:06:47.019Z,5.03
2022-08-03T20:09:54.505Z,8.48
2022-08-03T20:12:59.539Z,4.90
2022-08-03T20:16:02.014Z,5.55
2022-08-03T20:19:04.269Z,8.43
2022-08-03T20:22:17.721Z,6.70
2022-08-03T20:25:38.905Z,5.00
2022-08-03T20:28:49.825Z,8.27
2022-08-03T20:31:53.917Z,4.82
2022-08-03T20:38:27.210Z,6.20
2022-08-03T20:41:30.734Z,2.57
2022-08-03T20:44:34.166Z,2.78
2022-08-03T20:47:50.226Z,2.55
2022-08-03T20:50:55.344Z,2.53
2022-08-03T20:54:01.693Z,2.87
2022-08-03T20:57:10.059Z,3.17
2022-08-03T21:00:13.895Z,2.08
2022-08-03T21:03:16.792Z,2.65
2022-08-03T21:09:52.189Z,1.98
2022-08-03T21:12:58.400Z,4.65
2022-08-03T21:13:04.167Z,4.65
2022-08-03T21:13:07.169Z,5.45
2022-08-03T21:13:08.461Z,5.07
2022-08-03T21:13:13.764Z,2.85
2022-08-03T21:13:13.804Z,2.87
2022-08-03T21:16:21.648Z,3.67
2022-08-03T21:19:29.612Z,5.43
2022-08-03T21:22:35.486Z,5.75
2022-08-03T21:25:40.432Z,5.70
2022-08-03T21:28:43.042Z,6.05
2022-08-03T21:31:46.657Z,4.05
2022-08-03T21:34:50.930Z,6.57
2022-08-03T21:38:12.975Z,5.97
2022-08-03T21:41:15.122Z,4.10
2022-08-03T21:44:18.421Z,3.62
2022-08-03T21:47:37.129Z,6.30
2022-08-03T21:50:41.461Z,5.82
2022-08-03T21:54:03.560Z,3.83
2022-08-03T21:57:17.379Z,5.70
2022-08-03T22:00:21.635Z,4.35
2022-08-03T22:03:28.098Z,4.20
2022-08-03T22:06:30.780Z,5.95
2022-08-03T22:09:35.209Z,5.53
2022-08-03T22:12:37.825Z,6.07
2022-08-03T22:15:41.012Z,5.03
2022-08-03T22:18:45.179Z,4.30
2022-08-03T22:21:48.820Z,5.07
2022-08-03T22:24:56.447Z,5.20
2022-08-03T22:28:02.139Z,4.37
2022-08-03T22:31:37.670Z,5.55
2022-08-03T22:34:28.409Z,6.18
2022-08-03T22:37:32.198Z,6.10
2022-08-03T22:40:37.198Z,4.28
2022-08-03T22:43:39.709Z,4.78
2022-08-03T22:46:43.295Z,4.30
2022-08-03T22:49:46.369Z,4.50
2022-08-03T22:53:09.630Z,5.75
2022-08-03T22:56:12.438Z,6.70
2022-08-03T22:59:41.100Z,4.78
2022-08-03T23:02:40.390Z,6.45
2022-08-03T23:06:01.087Z,4.00
2022-08-03T23:09:10.817Z,4.47
2022-08-03T23:12:17.093Z,3.78
2022-08-03T23:15:19.573Z,5.20
2022-08-03T23:18:23.360Z,4.62
2022-08-03T23:22:00.561Z,5.12
2022-08-03T23:24:52.133Z,4.32
2022-08-03T23:28:05.173Z,7.53
2022-08-03T23:31:08.946Z,4.43
2022-08-03T23:34:32.480Z,4.68
2022-08-03T23:38:04.760Z,4.00
2022-08-03T23:40:59.634Z,5.12
2022-08-03T23:44:04.388Z,4.12
2022-08-03T23:47:06.554Z,4.68
2022-08-03T23:50:08.976Z,3.92
2022-08-03T23:53:23.214Z,3.87
2022-08-03T23:56:49.679Z,5.80
